corinthians.com.br alexa rank chart, corinthians.com.br alexa rank daily changes

corinthians.com.br alexa rank chart, corinthians.com.br alexa rank daily changes

corinthians.com.br
Actual rank:
152 820

RANK HISTORY

Date Rank Diff
2018/04/27 152 820 -49 416
2018/04/26 202 236 +48 476
2018/04/25 153 760 +45 210
2018/04/24 108 550 -44 270
2018/04/23 152 820 +63 241
2018/04/22 89 579 -47 006
2018/04/21 136 585 -599 114
2018/04/20 735 699 -52 559
2018/04/19 788 258 +582 495
2018/04/18 205 763 -64 504
2018/04/17 270 267 +88 883
2018/04/16 181 384 -758 466
2018/04/15 939 850 +629 099
2018/04/14 310 751 +19 954
2018/04/13 290 797 -48 882
2018/04/12 339 679 +200 259
2018/04/11 139 420 -14 841
2018/04/10 154 261 -51 481
2018/04/09 205 742 +10 623
2018/04/08 195 119 +23 872
2018/04/07 171 247 -621 382
2018/04/06 792 629 +577 596
2018/04/05 215 033 +15 881
2018/04/04 199 152 +48 183
2018/04/03 150 969 -64 296
2018/04/02 215 265 +18 584
2018/04/01 196 681 +89 840
2018/03/31 106 841 -181 069
2018/03/30 287 910 +114 996
2018/03/29 172 914 -244 964
2018/03/28 417 878 +183 456
2018/03/26 234 422 -16 885
2018/03/25 251 307 -19 862
2018/03/24 271 169 -34 556
2018/03/23 305 725 -147 286
2018/03/22 453 011 +119 161
2018/03/21 333 850 +157 421
2018/03/18 176 429 -330 741
2018/03/17 507 170 +239 765
2018/03/16 267 405 -266 938
2018/03/15 534 343 +234 756
2018/03/14 299 587 -253 011
2018/03/12 552 598 -405 809
2018/03/11 958 407 +515 547
2018/03/10 442 860 +304 727
2018/03/09 138 133 -338 325
2018/03/07 476 458 +44 528
2018/03/06 431 930 -264 592
2018/03/05 696 522 +123 446
2018/03/04 573 076 -202 712
2018/03/03 775 788 +449 890
2018/03/02 325 898 +90 604
2018/03/01 235 294 -220 984
2018/02/28 456 278 +313 633
2018/02/27 142 645 +20 408
2018/02/26 122 237

WIDGET FOR YOUR SITE

DOMAINS WITH THE NEAREST RANK

Domain Rank
amplifr.com 152 815
usbbog.edu.co 152 816
freeporn24x7.com 152 817
sexxxxfilms.com 152 818
sinchew.my 152 819
corinthians.com.br 152 820
dnative.ru 152 821
audiokinetic.com 152 822
apteka-sklad.com 152 823
pearson.com.au 152 824
best18teens.com 152 825

DOMAINS WITH THE NEAREST RANK BY TLD .com.br

Domain Rank
sitedelinhares.com.br 151 903
zedudu.com.br 151 905
fasdapsicanalise.com.br 152 073
sabesp.com.br 152 074
portalf3juridico.com.br 152 768
corinthians.com.br 152 820
tcheinverno.com.br 153 352
grafittiartes.com.br 153 457
jornaldebrasilia.com.br 153 804
adnews.com.br 153 891
barbaderespeito.com.br 153 892